sensor_id;sensor_type;location;lat;lon;timestamp;pressure;altitude;pressure_sealevel;temperature;humidity
75089;BME280;63673;49.928;8.150;2023-08-06T00:00:20;982.09;;;14.56;100
75089;BME280;63673;49.928;8.150;2023-08-06T00:01:22;982.08;;;14.57;100
75089;BME280;63673;49.928;8.150;2023-08-06T00:02:23;982.02;;;14.58;100
75089;BME280;63673;49.928;8.150;2023-08-06T00:03:25;982.02;;;14.59;100
75089;BME280;63673;49.928;8.150;2023-08-06T00:04:27;981.95;;;14.6;100
75089;BME280;63673;49.928;8.150;2023-08-06T00:05:28;981.96;;;14.61;100
75089;BME280;63673;49.928;8.150;2023-08-06T00:06:30;982.01;;;14.61;100
75089;BME280;63673;49.928;8.150;2023-08-06T00:07:32;981.99;;;14.62;100
75089;BME280;63673;49.928;8.150;2023-08-06T00:08:34;981.96;;;14.63;100
75089;BME280;63673;49.928;8.150;2023-08-06T00:09:35;981.89;;;14.64;100
75089;BME280;63673;49.928;8.150;2023-08-06T00:10:39;981.93;;;14.65;100
75089;BME280;63673;49.928;8.150;2023-08-06T00:11:39;981.9;;;14.66;100
75089;BME280;63673;49.928;8.150;2023-08-06T00:12:41;981.91;;;14.67;100
75089;BME280;63673;49.928;8.150;2023-08-06T00:13:42;981.92;;;14.67;100
75089;BME280;63673;49.928;8.150;2023-08-06T00:14:44;981.89;;;14.67;100
75089;BME280;63673;49.928;8.150;2023-08-06T00:15:46;981.89;;;14.68;100
75089;BME280;63673;49.928;8.150;2023-08-06T00:16:47;981.83;;;14.7;100
75089;BME280;63673;49.928;8.150;2023-08-06T00:17:49;981.82;;;14.71;100
75089;BME280;63673;49.928;8.150;2023-08-06T00:18:51;981.85;;;14.71;100
75089;BME280;63673;49.928;8.150;2023-08-06T00:19:53;981.86;;;14.72;100
75089;BME280;63673;49.928;8.150;2023-08-06T00:20:54;981.76;;;14.72;100
75089;BME280;63673;49.928;8.150;2023-08-06T00:21:56;981.78;;;14.73;100
75089;BME280;63673;49.928;8.150;2023-08-06T00:22:58;981.76;;;14.73;100
75089;BME280;63673;49.928;8.150;2023-08-06T00:24:00;981.75;;;14.73;100
75089;BME280;63673;49.928;8.150;2023-08-06T00:25:01;981.73;;;14.74;100
75089;BME280;63673;49.928;8.150;2023-08-06T00:26:03;981.7;;;14.73;100
75089;BME280;63673;49.928;8.150;2023-08-06T00:27:05;981.69;;;14.73;100
75089;BME280;63673;49.928;8.150;2023-08-06T00:28:07;981.65;;;14.74;100
75089;BME280;63673;49.928;8.150;2023-08-06T00:29:09;981.63;;;14.73;100
75089;BME280;63673;49.928;8.150;2023-08-06T00:30:10;981.61;;;14.73;100
75089;BME280;63673;49.928;8.150;2023-08-06T00:31:12;981.56;;;14.73;100
75089;BME280;63673;49.928;8.150;2023-08-06T00:32:13;981.57;;;14.72;100
75089;BME280;63673;49.928;8.150;2023-08-06T00:33:15;981.59;;;14.72;100
75089;BME280;63673;49.928;8.150;2023-08-06T00:34:17;981.56;;;14.72;100
75089;BME280;63673;49.928;8.150;2023-08-06T00:35:19;981.61;;;14.72;100
75089;BME280;63673;49.928;8.150;2023-08-06T00:36:20;981.55;;;14.72;100
75089;BME280;63673;49.928;8.150;2023-08-06T00:37:22;981.6;;;14.72;100
75089;BME280;63673;49.928;8.150;2023-08-06T00:38:24;981.6;;;14.73;100
75089;BME280;63673;49.928;8.150;2023-08-06T00:39:26;981.59;;;14.74;100
75089;BME280;63673;49.928;8.150;2023-08-06T00:40:27;981.6;;;14.74;100
75089;BME280;63673;49.928;8.150;2023-08-06T00:41:29;981.56;;;14.74;100
75089;BME280;63673;49.928;8.150;2023-08-06T00:42:31;981.54;;;14.74;100
75089;BME280;63673;49.928;8.150;2023-08-06T00:43:32;981.5;;;14.75;100
75089;BME280;63673;49.928;8.150;2023-08-06T00:44:34;981.46;;;14.76;100
75089;BME280;63673;49.928;8.150;2023-08-06T00:45:36;981.44;;;14.75;100
75089;BME280;63673;49.928;8.150;2023-08-06T00:46:38;981.42;;;14.76;100
75089;BME280;63673;49.928;8.150;2023-08-06T00:47:39;981.41;;;14.77;100
75089;BME280;63673;49.928;8.150;2023-08-06T00:48:41;981.38;;;14.77;100
75089;BME280;63673;49.928;8.150;2023-08-06T00:49:43;981.35;;;14.78;100
75089;BME280;63673;49.928;8.150;2023-08-06T00:50:45;981.3;;;14.77;100
75089;BME280;63673;49.928;8.150;2023-08-06T00:51:46;981.31;;;14.79;100
75089;BME280;63673;49.928;8.150;2023-08-06T00:52:48;981.33;;;14.78;100
75089;BME280;63673;49.928;8.150;2023-08-06T00:53:50;981.38;;;14.8;100
75089;BME280;63673;49.928;8.150;2023-08-06T00:54:52;981.34;;;14.8;100
75089;BME280;63673;49.928;8.150;2023-08-06T00:55:53;981.31;;;14.8;100
75089;BME280;63673;49.928;8.150;2023-08-06T00:56:55;981.25;;;14.81;100
75089;BME280;63673;49.928;8.150;2023-08-06T00:57:57;981.28;;;14.81;100
75089;BME280;63673;49.928;8.150;2023-08-06T00:58:59;981.29;;;14.82;100
75089;BME280;63673;49.928;8.150;2023-08-06T01:00:00;981.24;;;14.83;100
75089;BME280;63673;49.928;8.150;2023-08-06T01:01:02;981.25;;;14.82;100
75089;BME280;63673;49.928;8.150;2023-08-06T01:02:04;981.28;;;14.83;100
75089;BME280;63673;49.928;8.150;2023-08-06T01:03:05;981.23;;;14.83;100
75089;BME280;63673;49.928;8.150;2023-08-06T01:04:07;981.19;;;14.83;100
75089;BME280;63673;49.928;8.150;2023-08-06T01:05:09;981.18;;;14.83;100
75089;BME280;63673;49.928;8.150;2023-08-06T01:06:11;981.19;;;14.83;100
75089;BME280;63673;49.928;8.150;2023-08-06T01:07:14;981.18;;;14.83;100
75089;BME280;63673;49.928;8.150;2023-08-06T01:08:18;981.19;;;14.83;100
75089;BME280;63673;49.928;8.150;2023-08-06T01:09:21;981.2;;;14.84;100
75089;BME280;63673;49.928;8.150;2023-08-06T01:10:20;981.09;;;14.83;100
75089;BME280;63673;49.928;8.150;2023-08-06T01:11:21;981.09;;;14.84;100
75089;BME280;63673;49.928;8.150;2023-08-06T01:12:22;981.05;;;14.83;100
75089;BME280;63673;49.928;8.150;2023-08-06T01:13:23;981.11;;;14.83;100
75089;BME280;63673;49.928;8.150;2023-08-06T01:14:26;981.15;;;14.83;100
75089;BME280;63673;49.928;8.150;2023-08-06T01:15:27;981.18;;;14.82;100
75089;BME280;63673;49.928;8.150;2023-08-06T01:16:28;981.19;;;14.8;100
75089;BME280;63673;49.928;8.150;2023-08-06T01:17:30;981.16;;;14.79;100
75089;BME280;63673;49.928;8.150;2023-08-06T01:18:31;981.21;;;14.78;100
75089;BME280;63673;49.928;8.150;2023-08-06T01:19:33;981.16;;;14.77;100
75089;BME280;63673;49.928;8.150;2023-08-06T01:20:35;981.14;;;14.76;100
75089;BME280;63673;49.928;8.150;2023-08-06T01:21:37;981.12;;;14.74;100
75089;BME280;63673;49.928;8.150;2023-08-06T01:22:38;981.12;;;14.73;100
75089;BME280;63673;49.928;8.150;2023-08-06T01:23:40;981.09;;;14.73;100
75089;BME280;63673;49.928;8.150;2023-08-06T01:24:42;981.12;;;14.72;100
75089;BME280;63673;49.928;8.150;2023-08-06T01:25:45;981.09;;;14.71;100
75089;BME280;63673;49.928;8.150;2023-08-06T01:26:48;981.07;;;14.71;100
75089;BME280;63673;49.928;8.150;2023-08-06T01:27:47;981.1;;;14.7;100
75089;BME280;63673;49.928;8.150;2023-08-06T01:28:51;981.09;;;14.7;100
75089;BME280;63673;49.928;8.150;2023-08-06T01:29:54;981.07;;;14.69;100
75089;BME280;63673;49.928;8.150;2023-08-06T01:30:52;981.05;;;14.69;100
75089;BME280;63673;49.928;8.150;2023-08-06T01:31:54;981.09;;;14.68;100
75089;BME280;63673;49.928;8.150;2023-08-06T01:32:58;981.08;;;14.68;100
75089;BME280;63673;49.928;8.150;2023-08-06T01:33:58;981.05;;;14.68;100
75089;BME280;63673;49.928;8.150;2023-08-06T01:34:59;981.07;;;14.68;100
75089;BME280;63673;49.928;8.150;2023-08-06T01:36:01;981.06;;;14.67;100
75089;BME280;63673;49.928;8.150;2023-08-06T01:37:03;981.04;;;14.66;100
75089;BME280;63673;49.928;8.150;2023-08-06T01:38:04;981.03;;;14.67;100
75089;BME280;63673;49.928;8.150;2023-08-06T01:39:06;981.05;;;14.66;100
75089;BME280;63673;49.928;8.150;2023-08-06T01:40:09;981.03;;;14.67;100
75089;BME280;63673;49.928;8.150;2023-08-06T01:41:10;981.04;;;14.66;100
75089;BME280;63673;49.928;8.150;2023-08-06T01:42:11;981.06;;;14.65;100
75089;BME280;63673;49.928;8.150;2023-08-06T01:43:13;981.01;;;14.65;100
75089;BME280;63673;49.928;8.150;2023-08-06T01:44:15;981.04;;;14.64;100
75089;BME280;63673;49.928;8.150;2023-08-06T01:45:16;980.99;;;14.63;100
75089;BME280;63673;49.928;8.150;2023-08-06T01:46:18;980.98;;;14.63;100
75089;BME280;63673;49.928;8.150;2023-08-06T01:47:20;980.97;;;14.62;100
75089;BME280;63673;49.928;8.150;2023-08-06T01:48:22;980.99;;;14.62;100
75089;BME280;63673;49.928;8.150;2023-08-06T01:49:23;980.96;;;14.61;100
75089;BME280;63673;49.928;8.150;2023-08-06T01:50:25;980.97;;;14.61;100
75089;BME280;63673;49.928;8.150;2023-08-06T01:51:27;980.91;;;14.6;100
75089;BME280;63673;49.928;8.150;2023-08-06T01:52:29;980.91;;;14.59;100
75089;BME280;63673;49.928;8.150;2023-08-06T01:53:30;980.88;;;14.57;100
75089;BME280;63673;49.928;8.150;2023-08-06T01:54:32;980.87;;;14.55;100
75089;BME280;63673;49.928;8.150;2023-08-06T01:55:34;980.88;;;14.53;100
75089;BME280;63673;49.928;8.150;2023-08-06T01:56:36;980.88;;;14.51;100
75089;BME280;63673;49.928;8.150;2023-08-06T01:57:37;980.9;;;14.49;100
75089;BME280;63673;49.928;8.150;2023-08-06T01:58:39;980.88;;;14.46;100
75089;BME280;63673;49.928;8.150;2023-08-06T01:59:41;980.85;;;14.44;100
75089;BME280;63673;49.928;8.150;2023-08-06T02:00:43;980.85;;;14.41;100
75089;BME280;63673;49.928;8.150;2023-08-06T02:01:44;980.85;;;14.38;100
75089;BME280;63673;49.928;8.150;2023-08-06T02:02:46;980.83;;;14.35;100
75089;BME280;63673;49.928;8.150;2023-08-06T02:03:48;980.77;;;14.31;100
75089;BME280;63673;49.928;8.150;2023-08-06T02:04:50;980.79;;;14.28;100
75089;BME280;63673;49.928;8.150;2023-08-06T02:05:51;980.86;;;14.26;100
75089;BME280;63673;49.928;8.150;2023-08-06T02:06:53;980.87;;;14.23;100
75089;BME280;63673;49.928;8.150;2023-08-06T02:07:55;980.92;;;14.2;100
75089;BME280;63673;49.928;8.150;2023-08-06T02:08:56;980.9;;;14.17;100
75089;BME280;63673;49.928;8.150;2023-08-06T02:09:58;980.89;;;14.15;100
75089;BME280;63673;49.928;8.150;2023-08-06T02:11:01;980.85;;;14.12;100
75089;BME280;63673;49.928;8.150;2023-08-06T02:12:02;980.85;;;14.11;100
75089;BME280;63673;49.928;8.150;2023-08-06T02:13:03;980.88;;;14.09;100
75089;BME280;63673;49.928;8.150;2023-08-06T02:14:05;980.86;;;14.08;100
75089;BME280;63673;49.928;8.150;2023-08-06T02:15:07;980.86;;;14.06;100
75089;BME280;63673;49.928;8.150;2023-08-06T02:16:09;980.89;;;14.05;100
75089;BME280;63673;49.928;8.150;2023-08-06T02:17:10;980.83;;;14.04;100
75089;BME280;63673;49.928;8.150;2023-08-06T02:18:12;980.78;;;14.03;100
75089;BME280;63673;49.928;8.150;2023-08-06T02:19:14;980.78;;;14.02;100
75089;BME280;63673;49.928;8.150;2023-08-06T02:20:16;980.75;;;14.03;100
75089;BME280;63673;49.928;8.150;2023-08-06T02:21:17;980.76;;;14.03;100
75089;BME280;63673;49.928;8.150;2023-08-06T02:22:19;980.75;;;14.03;100
75089;BME280;63673;49.928;8.150;2023-08-06T02:23:21;980.78;;;14.02;100
75089;BME280;63673;49.928;8.150;2023-08-06T02:24:22;980.79;;;14.02;100
75089;BME280;63673;49.928;8.150;2023-08-06T02:25:24;980.77;;;14.03;100
75089;BME280;63673;49.928;8.150;2023-08-06T02:26:26;980.78;;;14.04;100
75089;BME280;63673;49.928;8.150;2023-08-06T02:27:28;980.78;;;14.03;100
75089;BME280;63673;49.928;8.150;2023-08-06T02:28:30;980.79;;;14.04;100
75089;BME280;63673;49.928;8.150;2023-08-06T02:29:31;980.81;;;14.05;100
75089;BME280;63673;49.928;8.150;2023-08-06T02:30:33;980.77;;;14.05;100
75089;BME280;63673;49.928;8.150;2023-08-06T02:31:34;980.81;;;14.06;100
75089;BME280;63673;49.928;8.150;2023-08-06T02:32:36;980.8;;;14.07;100
75089;BME280;63673;49.928;8.150;2023-08-06T02:33:38;980.78;;;14.07;100
75089;BME280;63673;49.928;8.150;2023-08-06T02:34:40;980.77;;;14.08;100
75089;BME280;63673;49.928;8.150;2023-08-06T02:35:42;980.79;;;14.08;100
75089;BME280;63673;49.928;8.150;2023-08-06T02:36:43;980.7;;;14.09;100
75089;BME280;63673;49.928;8.150;2023-08-06T02:37:45;980.73;;;14.1;100
75089;BME280;63673;49.928;8.150;2023-08-06T02:38:47;980.68;;;14.1;100
75089;BME280;63673;49.928;8.150;2023-08-06T02:39:48;980.69;;;14.1;100
75089;BME280;63673;49.928;8.150;2023-08-06T02:40:50;980.66;;;14.12;100
75089;BME280;63673;49.928;8.150;2023-08-06T02:41:52;980.6;;;14.12;100
75089;BME280;63673;49.928;8.150;2023-08-06T02:42:55;980.61;;;14.12;100
75089;BME280;63673;49.928;8.150;2023-08-06T02:43:55;980.64;;;14.12;100
75089;BME280;63673;49.928;8.150;2023-08-06T02:44:57;980.62;;;14.14;100
75089;BME280;63673;49.928;8.150;2023-08-06T02:45:59;980.62;;;14.14;100
75089;BME280;63673;49.928;8.150;2023-08-06T02:47:01;980.62;;;14.15;100
75089;BME280;63673;49.928;8.150;2023-08-06T02:48:02;980.57;;;14.15;100
75089;BME280;63673;49.928;8.150;2023-08-06T02:49:04;980.53;;;14.15;100
75089;BME280;63673;49.928;8.150;2023-08-06T02:50:06;980.55;;;14.15;100
75089;BME280;63673;49.928;8.150;2023-08-06T02:51:07;980.52;;;14.16;100
75089;BME280;63673;49.928;8.150;2023-08-06T02:52:09;980.51;;;14.16;100
75089;BME280;63673;49.928;8.150;2023-08-06T02:53:11;980.49;;;14.16;100
75089;BME280;63673;49.928;8.150;2023-08-06T02:54:13;980.49;;;14.16;100
75089;BME280;63673;49.928;8.150;2023-08-06T02:55:14;980.49;;;14.17;100
75089;BME280;63673;49.928;8.150;2023-08-06T02:56:16;980.5;;;14.17;100
75089;BME280;63673;49.928;8.150;2023-08-06T02:57:18;980.46;;;14.17;100
75089;BME280;63673;49.928;8.150;2023-08-06T02:58:21;980.49;;;14.17;100
75089;BME280;63673;49.928;8.150;2023-08-06T02:59:21;980.5;;;14.17;100
75089;BME280;63673;49.928;8.150;2023-08-06T03:00:23;980.46;;;14.17;100
75089;BME280;63673;49.928;8.150;2023-08-06T03:01:25;980.43;;;14.17;100
75089;BME280;63673;49.928;8.150;2023-08-06T03:02:26;980.49;;;14.17;100
75089;BME280;63673;49.928;8.150;2023-08-06T03:03:28;980.43;;;14.16;100
75089;BME280;63673;49.928;8.150;2023-08-06T03:04:30;980.42;;;14.16;100
75089;BME280;63673;49.928;8.150;2023-08-06T03:05:32;980.45;;;14.15;100
75089;BME280;63673;49.928;8.150;2023-08-06T03:06:33;980.43;;;14.14;100
75089;BME280;63673;49.928;8.150;2023-08-06T03:07:35;980.39;;;14.13;100
75089;BME280;63673;49.928;8.150;2023-08-06T03:08:37;980.41;;;14.12;100
75089;BME280;63673;49.928;8.150;2023-08-06T03:09:38;980.35;;;14.1;100
75089;BME280;63673;49.928;8.150;2023-08-06T03:10:40;980.35;;;14.09;100
75089;BME280;63673;49.928;8.150;2023-08-06T03:11:42;980.33;;;14.07;100
75089;BME280;63673;49.928;8.150;2023-08-06T03:12:44;980.19;;;14.05;100
75089;BME280;63673;49.928;8.150;2023-08-06T03:13:46;980.25;;;14.01;100
75089;BME280;63673;49.928;8.150;2023-08-06T03:14:47;980.21;;;14;100
75089;BME280;63673;49.928;8.150;2023-08-06T03:15:52;980.2;;;13.97;100
75089;BME280;63673;49.928;8.150;2023-08-06T03:16:51;980.23;;;13.95;100
75089;BME280;63673;49.928;8.150;2023-08-06T03:17:55;980.2;;;13.94;100
75089;BME280;63673;49.928;8.150;2023-08-06T03:18:54;980.24;;;13.92;100
75089;BME280;63673;49.928;8.150;2023-08-06T03:19:56;980.25;;;13.91;100
75089;BME280;63673;49.928;8.150;2023-08-06T03:20:57;980.2;;;13.88;100
75089;BME280;63673;49.928;8.150;2023-08-06T03:21:59;980.13;;;13.86;100
75089;BME280;63673;49.928;8.150;2023-08-06T03:23:01;980.14;;;13.84;100
75089;BME280;63673;49.928;8.150;2023-08-06T03:24:03;980.2;;;13.83;100
75089;BME280;63673;49.928;8.150;2023-08-06T03:25:05;980.2;;;13.8;100
75089;BME280;63673;49.928;8.150;2023-08-06T03:26:06;980.17;;;13.8;100
75089;BME280;63673;49.928;8.150;2023-08-06T03:27:08;980.27;;;13.78;100
75089;BME280;63673;49.928;8.150;2023-08-06T03:28:10;980.24;;;13.77;100
75089;BME280;63673;49.928;8.150;2023-08-06T03:29:11;980.26;;;13.76;100
75089;BME280;63673;49.928;8.150;2023-08-06T03:30:13;980.26;;;13.77;100
75089;BME280;63673;49.928;8.150;2023-08-06T03:31:15;980.27;;;13.77;100
75089;BME280;63673;49.928;8.150;2023-08-06T03:32:16;980.25;;;13.77;100
75089;BME280;63673;49.928;8.150;2023-08-06T03:33:18;980.25;;;13.78;100
75089;BME280;63673;49.928;8.150;2023-08-06T03:34:20;980.23;;;13.79;100
75089;BME280;63673;49.928;8.150;2023-08-06T03:35:22;980.27;;;13.81;100
75089;BME280;63673;49.928;8.150;2023-08-06T03:36:23;980.29;;;13.81;100
75089;BME280;63673;49.928;8.150;2023-08-06T03:37:25;980.27;;;13.83;100
75089;BME280;63673;49.928;8.150;2023-08-06T03:38:27;980.24;;;13.83;100
75089;BME280;63673;49.928;8.150;2023-08-06T03:39:29;980.25;;;13.84;100
75089;BME280;63673;49.928;8.150;2023-08-06T03:40:30;980.25;;;13.85;100
75089;BME280;63673;49.928;8.150;2023-08-06T03:41:32;980.25;;;13.85;100
75089;BME280;63673;49.928;8.150;2023-08-06T03:42:34;980.25;;;13.85;100
75089;BME280;63673;49.928;8.150;2023-08-06T03:43:36;980.19;;;13.86;100
75089;BME280;63673;49.928;8.150;2023-08-06T03:44:37;980.22;;;13.85;100
75089;BME280;63673;49.928;8.150;2023-08-06T03:45:39;980.19;;;13.85;100
75089;BME280;63673;49.928;8.150;2023-08-06T03:46:41;980.21;;;13.85;100
75089;BME280;63673;49.928;8.150;2023-08-06T03:47:42;980.18;;;13.85;100
75089;BME280;63673;49.928;8.150;2023-08-06T03:48:44;980.16;;;13.85;100
75089;BME280;63673;49.928;8.150;2023-08-06T03:49:46;980.19;;;13.84;100
75089;BME280;63673;49.928;8.150;2023-08-06T03:50:48;980.17;;;13.84;100
75089;BME280;63673;49.928;8.150;2023-08-06T03:51:49;980.15;;;13.83;100
75089;BME280;63673;49.928;8.150;2023-08-06T03:52:51;980.15;;;13.83;100
75089;BME280;63673;49.928;8.150;2023-08-06T03:53:53;980.1;;;13.83;100
75089;BME280;63673;49.928;8.150;2023-08-06T03:54:55;980.1;;;13.82;100
75089;BME280;63673;49.928;8.150;2023-08-06T03:55:56;980.1;;;13.82;100
75089;BME280;63673;49.928;8.150;2023-08-06T03:56:58;980.08;;;13.82;100
75089;BME280;63673;49.928;8.150;2023-08-06T03:58:00;980.05;;;13.82;100
75089;BME280;63673;49.928;8.150;2023-08-06T03:59:02;980.01;;;13.81;100
75089;BME280;63673;49.928;8.150;2023-08-06T04:00:03;980.07;;;13.81;100
75089;BME280;63673;49.928;8.150;2023-08-06T04:01:05;980.05;;;13.81;100
75089;BME280;63673;49.928;8.150;2023-08-06T04:02:07;980.06;;;13.8;100
75089;BME280;63673;49.928;8.150;2023-08-06T04:03:08;980.06;;;13.81;100
75089;BME280;63673;49.928;8.150;2023-08-06T04:04:10;980.09;;;13.8;100
75089;BME280;63673;49.928;8.150;2023-08-06T04:05:12;980.08;;;13.81;100
75089;BME280;63673;49.928;8.150;2023-08-06T04:06:14;980.15;;;13.8;100
75089;BME280;63673;49.928;8.150;2023-08-06T04:07:15;980.11;;;13.8;100
75089;BME280;63673;49.928;8.150;2023-08-06T04:08:17;980.12;;;13.81;100
75089;BME280;63673;49.928;8.150;2023-08-06T04:09:19;980.07;;;13.8;100
75089;BME280;63673;49.928;8.150;2023-08-06T04:10:21;980.09;;;13.8;100
75089;BME280;63673;49.928;8.150;2023-08-06T04:11:22;980.11;;;13.8;100
75089;BME280;63673;49.928;8.150;2023-08-06T04:12:24;980.07;;;13.81;100
75089;BME280;63673;49.928;8.150;2023-08-06T04:13:26;980.08;;;13.82;100
75089;BME280;63673;49.928;8.150;2023-08-06T04:14:27;980.09;;;13.82;100
75089;BME280;63673;49.928;8.150;2023-08-06T04:15:29;980.1;;;13.83;100
75089;BME280;63673;49.928;8.150;2023-08-06T04:16:31;980.06;;;13.84;100
75089;BME280;63673;49.928;8.150;2023-08-06T04:17:33;980.04;;;13.85;100
75089;BME280;63673;49.928;8.150;2023-08-06T04:18:34;980.05;;;13.85;100
75089;BME280;63673;49.928;8.150;2023-08-06T04:19:36;980.04;;;13.87;100
75089;BME280;63673;49.928;8.150;2023-08-06T04:20:42;980.07;;;13.88;100
75089;BME280;63673;49.928;8.150;2023-08-06T04:21:39;980.07;;;13.88;100
75089;BME280;63673;49.928;8.150;2023-08-06T04:22:41;980.06;;;13.89;100
75089;BME280;63673;49.928;8.150;2023-08-06T04:23:43;980.05;;;13.9;100
75089;BME280;63673;49.928;8.150;2023-08-06T04:24:45;980.07;;;13.91;100
75089;BME280;63673;49.928;8.150;2023-08-06T04:25:46;980.04;;;13.92;100
75089;BME280;63673;49.928;8.150;2023-08-06T04:26:48;980.05;;;13.92;100
75089;BME280;63673;49.928;8.150;2023-08-06T04:27:50;980.08;;;13.93;100
75089;BME280;63673;49.928;8.150;2023-08-06T04:28:52;980.02;;;13.93;100
75089;BME280;63673;49.928;8.150;2023-08-06T04:29:53;980.03;;;13.93;100
75089;BME280;63673;49.928;8.150;2023-08-06T04:30:55;980.02;;;13.94;100
75089;BME280;63673;49.928;8.150;2023-08-06T04:31:57;980.07;;;13.94;100
75089;BME280;63673;49.928;8.150;2023-08-06T04:32:59;980.05;;;13.94;100
75089;BME280;63673;49.928;8.150;2023-08-06T04:34:00;980.07;;;13.95;100
75089;BME280;63673;49.928;8.150;2023-08-06T04:35:02;980.09;;;13.96;100
75089;BME280;63673;49.928;8.150;2023-08-06T04:36:04;980.08;;;13.96;100
75089;BME280;63673;49.928;8.150;2023-08-06T04:37:05;980.07;;;13.96;100
75089;BME280;63673;49.928;8.150;2023-08-06T04:38:07;979.96;;;13.96;100
75089;BME280;63673;49.928;8.150;2023-08-06T04:39:09;979.99;;;13.97;100
75089;BME280;63673;49.928;8.150;2023-08-06T04:40:11;979.99;;;13.98;100
75089;BME280;63673;49.928;8.150;2023-08-06T04:41:12;980.01;;;13.98;100
75089;BME280;63673;49.928;8.150;2023-08-06T04:42:14;979.99;;;13.99;100
75089;BME280;63673;49.928;8.150;2023-08-06T04:43:16;979.95;;;14;100
75089;BME280;63673;49.928;8.150;2023-08-06T04:44:18;979.98;;;14;100
75089;BME280;63673;49.928;8.150;2023-08-06T04:45:19;979.97;;;14.01;100
75089;BME280;63673;49.928;8.150;2023-08-06T04:46:21;979.96;;;14.03;100
75089;BME280;63673;49.928;8.150;2023-08-06T04:47:23;979.88;;;14.03;100
75089;BME280;63673;49.928;8.150;2023-08-06T04:48:25;979.95;;;14.04;100
75089;BME280;63673;49.928;8.150;2023-08-06T04:49:26;979.91;;;14.04;100
75089;BME280;63673;49.928;8.150;2023-08-06T04:50:28;979.95;;;14.04;100
75089;BME280;63673;49.928;8.150;2023-08-06T04:51:30;979.97;;;14.06;100
75089;BME280;63673;49.928;8.150;2023-08-06T04:52:31;979.96;;;14.05;100
75089;BME280;63673;49.928;8.150;2023-08-06T04:53:33;979.91;;;14.06;100
75089;BME280;63673;49.928;8.150;2023-08-06T04:54:35;979.98;;;14.06;100
75089;BME280;63673;49.928;8.150;2023-08-06T04:55:37;979.93;;;14.06;100
75089;BME280;63673;49.928;8.150;2023-08-06T04:56:38;979.95;;;14.06;100
75089;BME280;63673;49.928;8.150;2023-08-06T04:57:40;979.95;;;14.06;100
75089;BME280;63673;49.928;8.150;2023-08-06T04:58:42;979.96;;;14.06;100
75089;BME280;63673;49.928;8.150;2023-08-06T04:59:44;979.98;;;14.05;100
75089;BME280;63673;49.928;8.150;2023-08-06T05:00:46;980;;;14.06;100
75089;BME280;63673;49.928;8.150;2023-08-06T05:01:47;979.99;;;14.06;100
75089;BME280;63673;49.928;8.150;2023-08-06T05:02:49;979.93;;;14.06;100
75089;BME280;63673;49.928;8.150;2023-08-06T05:03:51;979.97;;;14.06;100
75089;BME280;63673;49.928;8.150;2023-08-06T05:04:52;979.97;;;14.06;100
75089;BME280;63673;49.928;8.150;2023-08-06T05:05:54;979.99;;;14.07;100
75089;BME280;63673;49.928;8.150;2023-08-06T05:06:56;979.98;;;14.07;100
75089;BME280;63673;49.928;8.150;2023-08-06T05:07:57;979.96;;;14.08;100
75089;BME280;63673;49.928;8.150;2023-08-06T05:08:59;979.98;;;14.07;100
75089;BME280;63673;49.928;8.150;2023-08-06T05:10:01;980;;;14.08;100
75089;BME280;63673;49.928;8.150;2023-08-06T05:11:03;979.99;;;14.08;100
75089;BME280;63673;49.928;8.150;2023-08-06T05:12:05;979.97;;;14.07;100
75089;BME280;63673;49.928;8.150;2023-08-06T05:13:06;979.96;;;14.08;100
75089;BME280;63673;49.928;8.150;2023-08-06T05:14:08;979.97;;;14.07;100
75089;BME280;63673;49.928;8.150;2023-08-06T05:15:10;979.92;;;14.07;100
75089;BME280;63673;49.928;8.150;2023-08-06T05:16:11;979.97;;;14.07;100
75089;BME280;63673;49.928;8.150;2023-08-06T05:17:13;980.02;;;14.08;100
75089;BME280;63673;49.928;8.150;2023-08-06T05:18:15;979.97;;;14.08;100
75089;BME280;63673;49.928;8.150;2023-08-06T05:19:17;979.99;;;14.08;100
75089;BME280;63673;49.928;8.150;2023-08-06T05:20:19;979.97;;;14.08;100
75089;BME280;63673;49.928;8.150;2023-08-06T05:21:20;980.01;;;14.07;100
75089;BME280;63673;49.928;8.150;2023-08-06T05:22:22;979.99;;;14.07;100
75089;BME280;63673;49.928;8.150;2023-08-06T05:23:23;980.01;;;14.07;100
75089;BME280;63673;49.928;8.150;2023-08-06T05:24:25;980.04;;;14.05;100
75089;BME280;63673;49.928;8.150;2023-08-06T05:25:27;980;;;14.05;100
75089;BME280;63673;49.928;8.150;2023-08-06T05:26:29;980;;;14.04;100
75089;BME280;63673;49.928;8.150;2023-08-06T05:27:30;980;;;14.03;100
75089;BME280;63673;49.928;8.150;2023-08-06T05:28:32;979.96;;;14.02;100
75089;BME280;63673;49.928;8.150;2023-08-06T05:29:34;979.95;;;14.01;100
75089;BME280;63673;49.928;8.150;2023-08-06T05:30:38;979.95;;;14;100
75089;BME280;63673;49.928;8.150;2023-08-06T05:31:37;979.98;;;13.99;100
75089;BME280;63673;49.928;8.150;2023-08-06T05:32:39;979.94;;;13.98;100
75089;BME280;63673;49.928;8.150;2023-08-06T05:33:41;979.96;;;13.97;100
75089;BME280;63673;49.928;8.150;2023-08-06T05:34:43;979.95;;;13.95;100
75089;BME280;63673;49.928;8.150;2023-08-06T05:35:44;979.97;;;13.94;100
75089;BME280;63673;49.928;8.150;2023-08-06T05:36:46;979.93;;;13.93;100
75089;BME280;63673;49.928;8.150;2023-08-06T05:37:48;979.98;;;13.92;100
75089;BME280;63673;49.928;8.150;2023-08-06T05:38:49;979.94;;;13.91;100
75089;BME280;63673;49.928;8.150;2023-08-06T05:39:51;979.99;;;13.9;100
75089;BME280;63673;49.928;8.150;2023-08-06T05:40:53;979.95;;;13.89;100
75089;BME280;63673;49.928;8.150;2023-08-06T05:41:55;979.94;;;13.87;100
75089;BME280;63673;49.928;8.150;2023-08-06T05:42:56;979.97;;;13.86;100
75089;BME280;63673;49.928;8.150;2023-08-06T05:43:58;979.96;;;13.85;100
75089;BME280;63673;49.928;8.150;2023-08-06T05:45:00;980;;;13.83;100
75089;BME280;63673;49.928;8.150;2023-08-06T05:46:02;980.02;;;13.83;100